Time;durP1;ratioP1;P1;durP2;ratioP2;P2;SDS_P1;SDS_P2;PMS_P1;PMS_P2;Temp;Humidity;BMP_temperature;BMP_pressure;BME280_temperature;BME280_humidity;BME280_pressure;Samples;Min_cycle;Max_cycle;Signal;HPM_P1;HPM_P2
2022/05/08 00:01:53;;;;;;;15.90;8.60;;;12.50;99.90;;;;;;21097017;28;20036;-80
2022/05/08 00:11:54;;;;;;;16.27;10.27;;;12.50;99.90;;;;;;21076510;28;20062;-79
2022/05/08 00:21:55;;;;;;;11.63;9.03;;;12.40;99.90;;;;;;21083310;28;20506;-80
2022/05/08 00:31:56;;;;;;;15.77;9.43;;;12.30;99.90;;;;;;21105001;28;20063;-80
2022/05/08 00:41:57;;;;;;;12.30;9.17;;;12.30;99.90;;;;;;21121903;28;20040;-79
2022/05/08 00:51:58;;;;;;;15.03;9.10;;;12.10;99.90;;;;;;21122020;28;20052;-80
2022/05/08 01:01:59;;;;;;;16.00;10.15;;;11.90;99.90;;;;;;21093752;28;20031;-80
2022/05/08 01:12:00;;;;;;;13.17;8.07;;;12.00;99.90;;;;;;21098234;28;20023;-80
2022/05/08 01:22:00;;;;;;;18.67;9.23;;;12.00;99.90;;;;;;21102856;28;20032;-80
2022/05/08 01:32:01;;;;;;;12.33;8.90;;;11.90;99.90;;;;;;21102993;28;20085;-80
2022/05/08 01:42:06;;;;;;;13.27;9.97;;;11.80;99.90;;;;;;21099681;28;20024;-80
2022/05/08 01:52:08;;;;;;;17.63;10.55;;;11.60;99.90;;;;;;21092296;22;20072;-74
2022/05/08 02:02:09;;;;;;;18.30;10.90;;;11.60;99.90;;;;;;21053827;28;20111;-74
2022/05/08 02:12:10;;;;;;;15.80;10.70;;;11.50;99.90;;;;;;21053530;28;20098;-77
2022/05/08 02:22:11;;;;;;;16.58;10.50;;;11.50;99.90;;;;;;21069510;28;20054;-74
2022/05/08 02:32:12;;;;;;;17.03;10.40;;;11.40;99.90;;;;;;21084553;28;20024;-74
2022/05/08 02:42:13;;;;;;;15.00;11.10;;;11.30;99.90;;;;;;21086085;28;20040;-75
2022/05/08 02:52:14;;;;;;;13.00;9.63;;;11.40;99.90;;;;;;21088033;28;20024;-75
2022/05/08 03:02:16;;;;;;;15.53;10.50;;;11.40;99.90;;;;;;21087465;28;20038;-74
2022/05/08 03:12:17;;;;;;;13.63;10.48;;;11.30;99.90;;;;;;21086466;28;20051;-76
2022/05/08 03:22:17;;;;;;;15.53;10.30;;;11.20;99.90;;;;;;21085827;28;20036;-76
2022/05/08 03:32:18;;;;;;;15.67;11.13;;;11.20;99.90;;;;;;21084858;28;20542;-75
2022/05/08 03:42:19;;;;;;;14.17;10.07;;;11.20;99.90;;;;;;21084427;28;20024;-75
2022/05/08 03:52:20;;;;;;;18.37;10.33;;;11.10;99.90;;;;;;21048536;28;20032;-73
2022/05/08 04:02:20;;;;;;;17.57;10.97;;;11.10;99.90;;;;;;21083764;28;20052;-75
2022/05/08 04:12:22;;;;;;;15.40;11.10;;;11.10;99.90;;;;;;21081804;28;20123;-75
2022/05/08 04:32:41;;;;;;;15.50;9.77;;;11.10;99.90;;;;;;21080149;28;20028;-75
2022/05/08 04:42:42;;;;;;;16.00;12.17;;;11.20;99.90;;;;;;21078771;28;20031;-75
2022/05/08 04:52:43;;;;;;;22.77;13.20;;;10.90;99.90;;;;;;21060217;28;20071;-75
2022/05/08 05:02:44;;;;;;;23.70;14.23;;;10.80;99.90;;;;;;21077780;28;20460;-74
2022/05/08 05:12:45;;;;;;;23.97;13.90;;;11.10;99.90;;;;;;21058805;28;20028;-75
2022/05/08 05:22:46;;;;;;;16.45;11.82;;;11.50;99.90;;;;;;21076471;28;20028;-76
2022/05/08 05:32:47;;;;;;;17.63;12.10;;;11.70;99.90;;;;;;21075738;28;20105;-74
2022/05/08 05:42:48;;;;;;;12.73;10.03;;;12.00;99.90;;;;;;21074413;28;20107;-76
2022/05/08 05:52:50;;;;;;;41.10;27.87;;;12.50;99.90;;;;;;21075149;28;20059;-77
2022/05/08 06:02:52;;;;;;;14.18;10.52;;;13.00;99.90;;;;;;21075138;28;20063;-76
2022/05/08 06:12:53;;;;;;;12.47;9.40;;;13.50;99.90;;;;;;21073924;28;20032;-75
2022/05/08 06:22:56;;;;;;;9.37;7.73;;;13.80;99.90;;;;;;21076239;28;20024;-75
2022/05/08 06:32:58;;;;;;;15.38;8.00;;;14.40;99.90;;;;;;21075691;28;20161;-76
2022/05/08 06:43:00;;;;;;;8.37;6.37;;;15.20;99.90;;;;;;21073752;28;20055;-76
2022/05/08 06:53:01;;;;;;;10.27;5.90;;;16.00;99.90;;;;;;21071109;28;20429;-77
2022/05/08 07:03:04;;;;;;;9.97;5.90;;;16.30;99.90;;;;;;21080942;28;20353;-77
2022/05/08 07:13:05;;;;;;;20.77;16.27;;;16.80;99.90;;;;;;21068579;28;20031;-77
2022/05/08 07:23:06;;;;;;;9.97;4.60;;;17.60;99.90;;;;;;21075220;28;20677;-77
2022/05/08 07:33:07;;;;;;;7.23;4.47;;;17.70;99.90;;;;;;21089511;28;20024;-77
2022/05/08 07:43:09;;;;;;;5.57;3.80;;;17.50;99.90;;;;;;21085389;28;20032;-76
2022/05/08 07:53:09;;;;;;;6.88;6.00;;;17.90;99.90;;;;;;20929112;22;20040;-78
2022/05/08 08:03:10;;;;;;;4.60;3.90;;;18.30;99.90;;;;;;20880450;28;20029;-78
2022/05/08 08:13:11;;;;;;;4.33;3.33;;;18.80;99.90;;;;;;20872548;28;20368;-78
2022/05/08 08:23:15;;;;;;;5.13;4.00;;;18.30;99.90;;;;;;20871065;28;20025;-78
2022/05/08 08:33:16;;;;;;;5.68;3.83;;;18.30;99.90;;;;;;20845763;28;20514;-79
2022/05/08 08:43:17;;;;;;;4.13;3.30;;;18.10;99.90;;;;;;20833369;28;20029;-79
2022/05/08 08:53:18;;;;;;;4.30;3.60;;;17.50;99.90;;;;;;20890314;28;20052;-80
2022/05/08 09:03:25;;;;;;;4.20;3.70;;;17.70;99.90;;;;;;20928049;28;20101;-79
2022/05/08 09:13:30;;;;;;;5.85;3.67;;;17.60;99.90;;;;;;20930799;28;20037;-79
2022/05/08 09:23:30;;;;;;;8.27;5.68;;;18.30;99.90;;;;;;20930604;28;20033;-79
2022/05/08 09:33:34;;;;;;;6.10;5.40;;;19.80;99.90;;;;;;20936140;28;20480;-79
2022/05/08 09:43:35;;;;;;;5.95;4.55;;;18.90;99.90;;;;;;20940974;28;20121;-80
2022/05/08 09:53:38;;;;;;;7.07;3.90;;;19.90;99.90;;;;;;21018992;28;20042;-80
2022/05/08 10:03:39;;;;;;;8.85;4.13;;;19.20;99.90;;;;;;20994986;28;20033;-78
2022/05/08 10:13:55;;;;;;;5.60;3.70;;;19.40;99.90;;;;;;20983015;28;20241;-78
2022/05/08 10:23:58;;;;;;;7.28;3.92;;;20.10;99.90;;;;;;20974211;28;20082;-79
2022/05/08 10:34:05;;;;;;;7.35;4.18;;;19.40;99.90;;;;;;20944754;28;20033;-80
2022/05/08 10:44:37;;;;;;;6.07;3.95;;;18.80;99.90;;;;;;20985039;28;20540;-78
2022/05/08 10:54:58;;;;;;;7.70;4.20;;;20.00;99.90;;;;;;20895175;28;20044;-79
2022/05/08 11:04:58;;;;;;;7.95;4.85;;;19.90;99.90;;;;;;20834751;28;20053;-79
2022/05/08 11:15:09;;;;;;;6.87;4.03;;;19.40;99.90;;;;;;20832295;28;20577;-79
2022/05/08 11:25:11;;;;;;;4.28;3.25;;;20.50;99.90;;;;;;20884736;28;20487;-79
2022/05/08 11:45:31;;;;;;;7.05;3.47;;;19.20;99.90;;;;;;20837712;28;20048;-79
2022/05/08 11:55:43;;;;;;;4.20;3.43;;;19.50;99.90;;;;;;20996610;28;20524;-74
2022/05/08 12:05:46;;;;;;;6.83;4.80;;;19.80;99.90;;;;;;21062317;28;20036;-76
2022/05/08 12:15:46;;;;;;;6.20;4.25;;;19.30;99.90;;;;;;20967548;28;20037;-76
2022/05/08 12:25:51;;;;;;;7.90;3.80;;;19.50;99.90;;;;;;20934882;28;20756;-75
2022/05/08 12:35:55;;;;;;;6.35;3.80;;;19.60;99.90;;;;;;20912448;28;20036;-77
2022/05/08 12:45:55;;;;;;;5.57;4.30;;;19.00;99.90;;;;;;20954022;28;20032;-77
2022/05/08 12:55:57;;;;;;;5.07;3.97;;;19.20;99.90;;;;;;21011352;28;20791;-79
2022/05/08 13:05:57;;;;;;;4.50;4.07;;;19.50;99.90;;;;;;21021255;28;20040;-77
2022/05/08 13:15:58;;;;;;;4.20;3.47;;;19.20;99.90;;;;;;21025831;28;20044;-79
2022/05/08 13:25:59;;;;;;;35.27;24.20;;;19.50;99.90;;;;;;21016335;28;20132;-78
2022/05/08 13:36:01;;;;;;;5.73;5.00;;;19.90;99.90;;;;;;21012685;28;20059;-78
2022/05/08 13:46:02;;;;;;;4.55;3.47;;;20.10;99.90;;;;;;21041301;22;20842;-73
2022/05/08 13:56:04;;;;;;;4.13;3.00;;;20.30;99.90;;;;;;20630694;28;20068;-73
2022/05/08 14:06:08;;;;;;;4.32;3.05;;;20.10;99.90;;;;;;20631749;28;20057;-73
2022/05/08 14:16:09;;;;;;;4.28;2.90;;;19.10;99.90;;;;;;20629000;28;20034;-73
2022/05/08 14:26:10;;;;;;;4.43;2.97;;;18.90;99.90;;;;;;20630396;28;20035;-74
2022/05/08 14:36:12;;;;;;;4.00;3.20;;;19.20;99.90;;;;;;20630248;28;20035;-73
2022/05/08 14:46:12;;;;;;;;;;;19.50;99.90;;;;;;20665312;28;20120;-73
2022/05/08 14:56:13;;;;;;;4.10;3.33;;;19.80;99.90;;;;;;20729082;28;19921;-73
2022/05/08 15:06:14;;;;;;;5.40;3.10;;;19.40;99.90;;;;;;20709197;28;20037;-73
2022/05/08 15:16:15;;;;;;;3.63;2.93;;;19.20;99.90;;;;;;20709550;28;20109;-73
2022/05/08 15:26:17;;;;;;;4.70;2.90;;;19.10;99.90;;;;;;20718009;28;20045;-73
2022/05/08 15:36:18;;;;;;;4.13;3.30;;;19.10;99.90;;;;;;20721631;28;20496;-73
2022/05/08 15:46:19;;;;;;;4.30;3.53;;;18.70;99.90;;;;;;20743931;28;20045;-73
2022/05/08 15:56:20;;;;;;;3.67;2.97;;;18.50;99.90;;;;;;20738320;28;20440;-73
2022/05/08 16:06:21;;;;;;;6.13;3.30;;;18.40;99.90;;;;;;20720211;28;20101;-73
2022/05/08 16:26:42;;;;;;;9.65;3.35;;;18.20;99.90;;;;;;20719064;28;20034;-74
2022/05/08 16:36:43;;;;;;;4.18;3.15;;;18.00;99.90;;;;;;20701277;28;20041;-73
2022/05/08 16:46:44;;;;;;;4.97;3.80;;;18.00;99.90;;;;;;20744142;28;20101;-73
2022/05/08 16:56:44;;;;;;;6.37;4.10;;;17.90;99.90;;;;;;20706404;28;20050;-73
2022/05/08 17:06:45;;;;;;;4.43;3.70;;;17.90;99.90;;;;;;20714971;28;20025;-73
2022/05/08 17:16:46;;;;;;;4.13;3.40;;;17.70;99.90;;;;;;20715146;28;20108;-73
2022/05/08 17:37:07;;;;;;;3.92;3.10;;;17.40;99.90;;;;;;20711397;28;20034;-73
2022/05/08 17:47:08;;;;;;;6.43;3.37;;;17.30;99.90;;;;;;20693483;28;20048;-73
2022/05/08 17:57:09;;;;;;;4.20;3.10;;;17.10;99.90;;;;;;20690504;28;20028;-73
2022/05/08 18:07:10;;;;;;;5.97;3.50;;;17.00;99.90;;;;;;20691374;28;20034;-74
2022/05/08 18:17:11;;;;;;;4.37;3.33;;;17.00;99.90;;;;;;20707780;28;20090;-74
2022/05/08 18:27:12;;;;;;;;;;;16.90;99.90;;;;;;20691021;28;20806;-74
2022/05/08 18:37:14;;;;;;;3.27;2.93;;;16.90;99.90;;;;;;20690153;28;19921;-73
2022/05/08 18:47:15;;;;;;;4.90;3.03;;;16.80;99.90;;;;;;20710193;28;20312;-74
2022/05/08 18:57:16;;;;;;;4.60;3.57;;;16.60;99.90;;;;;;20712852;28;20120;-74
2022/05/08 19:07:16;;;;;;;4.20;3.30;;;16.50;99.90;;;;;;20701065;28;20034;-74
2022/05/08 19:17:17;;;;;;;5.73;4.03;;;16.40;99.90;;;;;;20721161;28;20117;-74
2022/05/08 19:27:19;;;;;;;5.10;4.00;;;16.00;99.90;;;;;;20720164;28;20033;-74
2022/05/08 19:47:39;;;;;;;5.47;4.05;;;15.70;99.90;;;;;;20845516;22;20050;-79
2022/05/08 19:57:40;;;;;;;7.10;4.77;;;15.50;99.90;;;;;;21183014;28;20036;-80
2022/05/08 20:07:42;;;;;;;5.53;4.23;;;15.50;99.90;;;;;;21206569;28;20035;-80
2022/05/08 20:17:44;;;;;;;7.70;4.32;;;15.10;99.90;;;;;;21211373;28;20031;-79
2022/05/08 20:27:46;;;;;;;;;;;14.70;99.90;;;;;;21195531;28;20066;-79
2022/05/08 20:37:46;;;;;;;9.43;5.30;;;14.40;99.90;;;;;;21188973;28;20300;-78
2022/05/08 20:47:47;;;;;;;10.27;5.70;;;14.00;99.90;;;;;;21188323;28;20039;-79
2022/05/08 20:57:49;;;;;;;6.70;5.00;;;13.90;99.90;;;;;;21192119;28;20024;-79
2022/05/08 21:07:54;;;;;;;;;;;13.70;99.90;;;;;;21184622;28;20039;-79
2022/05/08 21:17:55;;;;;;;7.60;6.07;;;13.20;99.90;;;;;;21171047;28;19915;-79
2022/05/08 21:27:56;;;;;;;8.77;6.27;;;13.00;99.90;;;;;;21168342;28;20027;-78
2022/05/08 21:37:57;;;;;;;8.27;6.43;;;12.60;99.90;;;;;;21162385;28;20023;-78
2022/05/08 21:47:58;;;;;;;9.80;6.70;;;12.30;99.90;;;;;;21163044;28;20454;-78
2022/05/08 21:57:59;;;;;;;9.40;6.23;;;12.10;99.90;;;;;;21129419;28;20030;-79
2022/05/08 22:07:59;;;;;;;12.73;6.57;;;12.20;99.90;;;;;;21118739;28;20035;-79
2022/05/08 22:18:00;;;;;;;9.07;6.33;;;12.00;99.90;;;;;;21087769;28;20486;-78
2022/05/08 22:28:01;;;;;;;9.43;6.70;;;12.00;99.90;;;;;;21039946;28;20596;-79
2022/05/08 22:38:03;;;;;;;8.03;6.37;;;11.90;99.90;;;;;;21074631;28;20015;-79
2022/05/08 22:48:04;;;;;;;10.85;6.80;;;11.80;99.90;;;;;;21193451;28;20042;-79
2022/05/08 22:58:05;;;;;;;8.52;6.75;;;11.60;99.90;;;;;;21205916;28;20020;-79
2022/05/08 23:08:06;;;;;;;9.90;6.90;;;11.70;99.90;;;;;;21200457;28;20517;-79
2022/05/08 23:18:10;;;;;;;7.93;5.83;;;12.00;99.90;;;;;;21204192;28;20500;-79
2022/05/08 23:28:11;;;;;;;9.70;6.55;;;12.00;99.90;;;;;;21202592;28;20038;-79
2022/05/08 23:38:12;;;;;;;8.57;6.30;;;12.00;99.90;;;;;;21204909;28;20039;-78
2022/05/08 23:48:13;;;;;;;9.17;6.47;;;12.10;99.90;;;;;;21204450;28;20416;-78
2022/05/08 23:58:13;;;;;;;10.83;7.00;;;11.70;99.90;;;;;;21195577;28;20538;-79
